首页
METAR-TAF:

METAR-TAF

机场 :

华欣, 泰国

纬度: 12-35N, 经度: 099-57E, 海拔: 5米

当前天气观测

该预报发布于1小时和2分钟前的12:00 UTC
风速6节,风向西转西南,在南转西南西转西北之间变化
温度 32°C
湿度 59%
气压 1006 hPa
能见度10公里或以上
少量云层高于3000英尺

METAR: VTPH 171200Z 25006KT 200V290 9999 FEW030 32/23 Q1006 NOSIG

时间: 20:02 (13:02 UTC)

预报

该预报发布于2小时和2分钟前的11:00 UTC
预报有效从17日的 12点(UTC)到 18日的 12点(UTC)
风速3节,风向西转西南
能见度10公里或以上
少量云层高于3000英尺
成为
从 18日的 03点(UTC)到 18日的 05点(UTC)
风速8节,风向东南

TAF: VTPH 171100Z 1712/1812 24003KT 9999 FEW030 BECMG 1803/1805 13008KT

超过4000个机场的气象观测和天气预报(METAR&TAF报告)。

可查询的气象台以黄色和红色小点在地图上表示。

将鼠标移到小点上方,可查看气象台名称。

然后点击查看天气观测和预报。

如需切换地图:点击带黑十字的绿色按钮放大地图;点击带横线的绿色按钮缩小地图;或者点击绿色箭头查看邻近地区的地图。


METAR-TAF: